WZZ2122 ENBR-EYVI
Flight info
| Callsign | WZZ2122 |
|---|---|
| Flight time | 1h 48m |
| Altitude | 37000 |
| Route | GOKAB DCT XIDMI DCT EVONA DCT EKLIN DCT OTNAV |
| Aircraft | A320/M-SDE3FGHIRWY/LB1 |
Departure
| Time | 2026-04-28 16:19 |
|---|---|
| Airport | Bergen Airport, Flesland (ENBR) |
Arrival
| Time | 2026-04-28 18:08 |
|---|---|
| Airport | Vilnius International Airport (EYVI) |
| Time | Latitude | Longitude | Altitude | Speed | Heading |
|---|---|---|---|---|---|
| 2026-04-28 15:58 | 60.28891 | 5.22539 | 150 ft | 0 kts | 102° |
| 2026-04-28 16:10 | 60.28891 | 5.22536 | 150 ft | 2 kts | 103° |
| 2026-04-28 16:11 | 60.28910 | 5.22439 | 151 ft | 4 kts | 129° |
| 2026-04-28 16:11 | 60.28952 | 5.22385 | 151 ft | 2 kts | 170° |
| 2026-04-28 16:12 | 60.28953 | 5.22384 | 151 ft | 0 kts | 170° |
| 2026-04-28 16:14 | 60.28939 | 5.22342 | 151 ft | 4 kts | 258° |
| 2026-04-28 16:14 | 60.28813 | 5.22316 | 150 ft | 18 kts | 171° |
| 2026-04-28 16:15 | 60.28496 | 5.22421 | 147 ft | 22 kts | 171° |
| 2026-04-28 16:15 | 60.28337 | 5.22475 | 146 ft | 25 kts | 170° |
| 2026-04-28 16:15 | 60.28177 | 5.22525 | 144 ft | 19 kts | 169° |
| 2026-04-28 16:16 | 60.28056 | 5.22433 | 143 ft | 0 kts | 261° |
| 2026-04-28 16:17 | 60.28053 | 5.22383 | 142 ft | 11 kts | 262° |
| 2026-04-28 16:17 | 60.28091 | 5.22226 | 141 ft | 14 kts | 342° |
| 2026-04-28 16:18 | 60.28145 | 5.22219 | 142 ft | 0 kts | 351° |
| 2026-04-28 16:18 | 60.28156 | 5.22216 | 142 ft | 11 kts | 351° |
| 2026-04-28 16:19 | 60.28474 | 5.22101 | 149 ft | 79 kts | 348° |
| 2026-04-28 16:19 | 60.29192 | 5.21865 | 154 ft | 128 kts | 350° |
| 2026-04-28 16:19 | 60.30179 | 5.21519 | 358 ft | 153 kts | 349° |
| 2026-04-28 16:19 | 60.31277 | 5.21237 | 884 ft | 167 kts | 352° |
| 2026-04-28 16:20 | 60.32502 | 5.20982 | 1425 ft | 186 kts | 352° |
| 2026-04-28 16:20 | 60.33846 | 5.20691 | 2008 ft | 205 kts | 350° |
| 2026-04-28 16:20 | 60.35335 | 5.20157 | 2473 ft | 229 kts | 348° |
| 2026-04-28 16:20 | 60.36960 | 5.19507 | 3100 ft | 244 kts | 348° |
| 2026-04-28 16:21 | 60.38641 | 5.18842 | 4034 ft | 248 kts | 349° |
| 2026-04-28 16:21 | 60.40352 | 5.18195 | 4986 ft | 250 kts | 350° |
| 2026-04-28 16:21 | 60.42083 | 5.17568 | 5704 ft | 256 kts | 350° |
| 2026-04-28 16:21 | 60.43840 | 5.16951 | 5933 ft | 256 kts | 350° |
| 2026-04-28 16:22 | 60.45600 | 5.16391 | 6000 ft | 256 kts | 356° |
| 2026-04-28 16:22 | 60.47351 | 5.16889 | 6005 ft | 256 kts | 20° |
| 2026-04-28 16:22 | 60.48834 | 5.18908 | 6274 ft | 263 kts | 46° |
| 2026-04-28 16:22 | 60.49783 | 5.22113 | 7193 ft | 271 kts | 69° |
| 2026-04-28 16:23 | 60.50138 | 5.25898 | 8055 ft | 278 kts | 84° |
| 2026-04-28 16:23 | 60.49827 | 5.29816 | 8911 ft | 289 kts | 108° |
| 2026-04-28 16:23 | 60.48670 | 5.33231 | 9714 ft | 303 kts | 136° |
| 2026-04-28 16:23 | 60.46794 | 5.35305 | 10474 ft | 314 kts | 163° |
| 2026-04-28 16:24 | 60.44602 | 5.36398 | 10824 ft | 336 kts | 166° |
| 2026-04-28 16:24 | 60.42322 | 5.37937 | 10984 ft | 356 kts | 150° |
| 2026-04-28 16:24 | 60.40319 | 5.40961 | 11391 ft | 363 kts | 129° |
| 2026-04-28 16:24 | 60.38947 | 5.45101 | 11966 ft | 359 kts | 109° |
| 2026-04-28 16:25 | 60.38295 | 5.49980 | 12563 ft | 353 kts | 90° |
| 2026-04-28 16:25 | 60.38049 | 5.54868 | 13199 ft | 357 kts | 91° |
| 2026-04-28 16:25 | 60.37692 | 5.59870 | 13840 ft | 362 kts | 93° |
| 2026-04-28 16:25 | 60.37263 | 5.64924 | 14486 ft | 367 kts | 94° |
| 2026-04-28 16:26 | 60.36809 | 5.70024 | 15091 ft | 370 kts | 94° |
| 2026-04-28 16:26 | 60.36353 | 5.75167 | 15702 ft | 373 kts | 93° |
| 2026-04-28 16:26 | 60.35906 | 5.80360 | 16290 ft | 376 kts | 93° |
| 2026-04-28 16:26 | 60.35472 | 5.85586 | 16889 ft | 379 kts | 92° |
| 2026-04-28 16:27 | 60.35045 | 5.90864 | 17483 ft | 382 kts | 92° |
| 2026-04-28 16:27 | 60.34765 | 5.94390 | 17838 ft | 384 kts | 92° |
| 2026-04-28 16:27 | 60.33912 | 6.05113 | 18980 ft | 390 kts | 92° |
| 2026-04-28 16:28 | 60.33473 | 6.10542 | 19487 ft | 394 kts | 92° |
| 2026-04-28 16:28 | 60.33024 | 6.16028 | 20003 ft | 397 kts | 92° |
| 2026-04-28 16:28 | 60.32418 | 6.23344 | 20647 ft | 401 kts | 93° |
| 2026-04-28 16:28 | 60.32105 | 6.27110 | 20982 ft | 403 kts | 93° |
| 2026-04-28 16:29 | 60.31156 | 6.38367 | 21952 ft | 410 kts | 93° |
| 2026-04-28 16:29 | 60.30187 | 6.49712 | 22881 ft | 416 kts | 94° |
| 2026-04-28 16:30 | 60.29693 | 6.55461 | 23376 ft | 418 kts | 94° |
| 2026-04-28 16:30 | 60.29193 | 6.61265 | 23823 ft | 421 kts | 94° |
| 2026-04-28 16:30 | 60.28691 | 6.67100 | 24245 ft | 424 kts | 94° |
| 2026-04-28 16:30 | 60.28185 | 6.72966 | 24665 ft | 426 kts | 93° |
| 2026-04-28 16:31 | 60.27670 | 6.78861 | 25066 ft | 428 kts | 93° |
| 2026-04-28 16:31 | 60.27149 | 6.84780 | 25459 ft | 430 kts | 93° |
| 2026-04-28 16:31 | 60.26630 | 6.90720 | 25844 ft | 432 kts | 92° |
| 2026-04-28 16:31 | 60.26105 | 6.96685 | 26223 ft | 434 kts | 92° |
| 2026-04-28 16:32 | 60.25573 | 7.02678 | 26598 ft | 436 kts | 93° |
| 2026-04-28 16:32 | 60.24479 | 7.14738 | 27346 ft | 440 kts | 93° |
| 2026-04-28 16:32 | 60.23924 | 7.20805 | 27729 ft | 442 kts | 92° |
| 2026-04-28 16:33 | 60.23367 | 7.26899 | 28097 ft | 444 kts | 92° |
| 2026-04-28 16:33 | 60.22998 | 7.30953 | 28344 ft | 445 kts | 92° |
| 2026-04-28 16:33 | 60.22244 | 7.39186 | 28874 ft | 448 kts | 92° |
| 2026-04-28 16:33 | 60.21677 | 7.45348 | 29274 ft | 449 kts | 92° |
| 2026-04-28 16:34 | 60.21103 | 7.51503 | 29778 ft | 447 kts | 92° |
| 2026-04-28 16:34 | 60.20526 | 7.57635 | 30318 ft | 445 kts | 91° |
| 2026-04-28 16:34 | 60.19957 | 7.63656 | 30789 ft | 443 kts | 91° |
| 2026-04-28 16:34 | 60.19381 | 7.69730 | 31233 ft | 442 kts | 91° |
| 2026-04-28 16:35 | 60.18797 | 7.75864 | 31689 ft | 440 kts | 91° |
| 2026-04-28 16:35 | 60.18226 | 7.81834 | 32139 ft | 439 kts | 91° |
| 2026-04-28 16:35 | 60.17648 | 7.87850 | 32600 ft | 437 kts | 91° |
| 2026-04-28 16:35 | 60.17072 | 7.93838 | 33071 ft | 436 kts | 91° |
| 2026-04-28 16:36 | 60.16498 | 7.99804 | 33516 ft | 434 kts | 91° |
| 2026-04-28 16:36 | 60.15920 | 8.05749 | 34066 ft | 432 kts | 90° |
| 2026-04-28 16:36 | 60.15341 | 8.11657 | 34590 ft | 429 kts | 90° |
| 2026-04-28 16:36 | 60.14763 | 8.17527 | 34969 ft | 428 kts | 91° |
| 2026-04-28 16:37 | 60.14194 | 8.23315 | 35272 ft | 428 kts | 91° |
| 2026-04-28 16:37 | 60.13606 | 8.29264 | 35551 ft | 429 kts | 91° |
| 2026-04-28 16:37 | 60.13027 | 8.35075 | 35821 ft | 430 kts | 91° |
| 2026-04-28 16:38 | 60.11839 | 8.46853 | 36392 ft | 431 kts | 92° |
| 2026-04-28 16:38 | 60.11239 | 8.52747 | 36684 ft | 431 kts | 92° |
| 2026-04-28 16:38 | 60.10636 | 8.58641 | 36928 ft | 431 kts | 92° |
| 2026-04-28 16:38 | 60.10034 | 8.64529 | 37182 ft | 432 kts | 93° |
| 2026-04-28 16:39 | 60.09428 | 8.70445 | 37418 ft | 435 kts | 93° |
| 2026-04-28 16:39 | 60.08199 | 8.82397 | 37399 ft | 444 kts | 93° |
| 2026-04-28 16:40 | 60.06931 | 8.94528 | 37399 ft | 445 kts | 93° |
| 2026-04-28 16:40 | 60.05646 | 9.06679 | 37375 ft | 445 kts | 93° |
| 2026-04-28 16:41 | 60.04355 | 9.18820 | 37376 ft | 445 kts | 93° |
| 2026-04-28 16:41 | 60.03057 | 9.30853 | 37383 ft | 446 kts | 94° |
| 2026-04-28 16:42 | 60.01732 | 9.43001 | 37373 ft | 447 kts | 94° |
| 2026-04-28 16:42 | 60.00406 | 9.55146 | 37366 ft | 448 kts | 94° |
| 2026-04-28 16:43 | 59.99067 | 9.67329 | 37370 ft | 449 kts | 94° |
| 2026-04-28 16:43 | 59.97709 | 9.79505 | 37395 ft | 449 kts | 94° |
| 2026-04-28 16:44 | 59.96326 | 9.91688 | 37397 ft | 450 kts | 94° |
| 2026-04-28 16:44 | 59.94945 | 10.03866 | 37386 ft | 449 kts | 94° |
| 2026-04-28 16:45 | 59.93557 | 10.16026 | 37389 ft | 449 kts | 94° |
| 2026-04-28 16:45 | 59.92165 | 10.28120 | 37391 ft | 450 kts | 94° |
| 2026-04-28 16:46 | 59.90753 | 10.40282 | 37399 ft | 450 kts | 94° |
| 2026-04-28 16:46 | 59.89317 | 10.52430 | 37401 ft | 451 kts | 94° |
| 2026-04-28 16:47 | 59.87864 | 10.64581 | 37407 ft | 451 kts | 94° |
| 2026-04-28 16:47 | 59.86414 | 10.76698 | 37394 ft | 450 kts | 94° |
| 2026-04-28 16:48 | 59.84961 | 10.88825 | 37394 ft | 450 kts | 95° |
| 2026-04-28 16:48 | 59.83490 | 11.00942 | 37398 ft | 451 kts | 95° |
| 2026-04-28 16:49 | 59.82010 | 11.13007 | 37403 ft | 452 kts | 95° |
| 2026-04-28 16:49 | 59.80507 | 11.25143 | 37455 ft | 452 kts | 95° |
| 2026-04-28 16:50 | 59.78994 | 11.37266 | 37402 ft | 452 kts | 95° |
| 2026-04-28 16:50 | 59.77470 | 11.49381 | 37403 ft | 452 kts | 95° |
| 2026-04-28 16:51 | 59.75929 | 11.61502 | 37402 ft | 453 kts | 95° |
| 2026-04-28 16:51 | 59.74381 | 11.73605 | 37404 ft | 453 kts | 96° |
| 2026-04-28 16:52 | 59.72820 | 11.85676 | 37407 ft | 453 kts | 96° |
| 2026-04-28 16:52 | 59.70744 | 11.97596 | 37388 ft | 467 kts | 110° |
| 2026-04-28 16:53 | 59.67675 | 12.08997 | 37386 ft | 469 kts | 110° |
| 2026-04-28 16:53 | 59.64596 | 12.20400 | 37385 ft | 470 kts | 110° |
| 2026-04-28 16:54 | 59.61501 | 12.31795 | 37389 ft | 471 kts | 110° |
| 2026-04-28 16:54 | 59.58389 | 12.43178 | 37394 ft | 471 kts | 110° |
| 2026-04-28 16:55 | 59.55277 | 12.54496 | 37402 ft | 472 kts | 110° |
| 2026-04-28 16:55 | 59.52147 | 12.65854 | 37402 ft | 472 kts | 110° |
| 2026-04-28 16:56 | 59.49012 | 12.77209 | 37402 ft | 472 kts | 110° |
| 2026-04-28 16:56 | 59.45862 | 12.88535 | 37408 ft | 472 kts | 111° |
| 2026-04-28 16:57 | 59.42689 | 12.99838 | 37407 ft | 472 kts | 111° |
| 2026-04-28 16:57 | 59.39515 | 13.11127 | 37400 ft | 472 kts | 111° |
| 2026-04-28 16:58 | 59.36341 | 13.22381 | 37379 ft | 472 kts | 111° |
| 2026-04-28 16:58 | 59.33148 | 13.33636 | 37389 ft | 473 kts | 111° |
| 2026-04-28 16:59 | 59.29935 | 13.44879 | 37391 ft | 473 kts | 111° |
| 2026-04-28 16:59 | 59.26710 | 13.56107 | 37397 ft | 474 kts | 111° |
| 2026-04-28 17:00 | 59.23498 | 13.67257 | 37393 ft | 473 kts | 111° |
| 2026-04-28 17:00 | 59.20260 | 13.78447 | 37398 ft | 473 kts | 111° |
| 2026-04-28 17:01 | 59.17013 | 13.89611 | 37408 ft | 473 kts | 112° |
| 2026-04-28 17:01 | 59.13746 | 14.00769 | 37408 ft | 474 kts | 112° |
| 2026-04-28 17:02 | 59.10469 | 14.11911 | 37410 ft | 474 kts | 112° |
| 2026-04-28 17:02 | 59.07207 | 14.22953 | 37404 ft | 473 kts | 112° |
| 2026-04-28 17:03 | 59.02289 | 14.39516 | 37403 ft | 471 kts | 112° |
| 2026-04-28 17:03 | 58.99006 | 14.50527 | 37399 ft | 472 kts | 112° |
| 2026-04-28 17:04 | 58.94054 | 14.67022 | 37402 ft | 472 kts | 112° |
| 2026-04-28 17:05 | 58.89069 | 14.83472 | 37392 ft | 472 kts | 112° |
| 2026-04-28 17:06 | 58.84064 | 14.99886 | 37390 ft | 473 kts | 112° |
| 2026-04-28 17:06 | 58.79033 | 15.16282 | 37392 ft | 474 kts | 113° |
| 2026-04-28 17:07 | 58.75663 | 15.27210 | 37394 ft | 474 kts | 113° |
| 2026-04-28 17:07 | 58.72275 | 15.38108 | 37375 ft | 474 kts | 113° |
| 2026-04-28 17:08 | 58.68887 | 15.48930 | 37373 ft | 475 kts | 113° |
| 2026-04-28 17:08 | 58.65475 | 15.59835 | 37373 ft | 476 kts | 113° |
| 2026-04-28 17:09 | 58.62053 | 15.70731 | 37391 ft | 476 kts | 114° |
| 2026-04-28 17:09 | 58.58620 | 15.81596 | 37393 ft | 476 kts | 114° |
| 2026-04-28 17:10 | 58.55171 | 15.92456 | 37386 ft | 476 kts | 114° |
| 2026-04-28 17:10 | 58.51740 | 16.03239 | 37384 ft | 477 kts | 114° |
| 2026-04-28 17:11 | 58.48270 | 16.14083 | 37385 ft | 478 kts | 114° |
| 2026-04-28 17:11 | 58.44777 | 16.24907 | 37390 ft | 478 kts | 114° |
| 2026-04-28 17:12 | 58.41273 | 16.35719 | 37391 ft | 479 kts | 114° |
| 2026-04-28 17:12 | 58.37777 | 16.46489 | 37383 ft | 475 kts | 115° |
| 2026-04-28 17:13 | 58.34309 | 16.57115 | 37388 ft | 475 kts | 115° |
| 2026-04-28 17:13 | 58.30807 | 16.67814 | 37387 ft | 476 kts | 115° |
| 2026-04-28 17:14 | 58.27292 | 16.78483 | 37390 ft | 476 kts | 115° |
| 2026-04-28 17:14 | 58.24356 | 16.87351 | 37397 ft | 476 kts | 115° |
| 2026-04-28 17:15 | 58.20820 | 16.97988 | 37398 ft | 476 kts | 115° |
| 2026-04-28 17:15 | 58.17282 | 17.08599 | 37396 ft | 476 kts | 115° |
| 2026-04-28 17:16 | 58.13736 | 17.19202 | 37389 ft | 477 kts | 116° |
| 2026-04-28 17:16 | 58.10165 | 17.29806 | 37394 ft | 477 kts | 116° |
| 2026-04-28 17:17 | 58.06592 | 17.40385 | 37402 ft | 478 kts | 116° |
| 2026-04-28 17:17 | 58.03025 | 17.50885 | 37399 ft | 477 kts | 116° |
| 2026-04-28 17:18 | 57.99430 | 17.61399 | 37397 ft | 477 kts | 116° |
| 2026-04-28 17:18 | 57.95826 | 17.71927 | 37399 ft | 478 kts | 116° |
| 2026-04-28 17:19 | 57.92215 | 17.82430 | 37402 ft | 478 kts | 117° |
| 2026-04-28 17:19 | 57.88585 | 17.92937 | 37403 ft | 479 kts | 117° |
| 2026-04-28 17:20 | 57.85551 | 18.01674 | 37403 ft | 479 kts | 117° |
| 2026-04-28 17:20 | 57.81313 | 18.13843 | 37402 ft | 479 kts | 117° |
| 2026-04-28 17:21 | 57.77654 | 18.24292 | 37400 ft | 479 kts | 117° |
| 2026-04-28 17:22 | 57.72147 | 18.39917 | 37399 ft | 479 kts | 117° |
| 2026-04-28 17:22 | 57.68468 | 18.50311 | 37390 ft | 479 kts | 118° |
| 2026-04-28 17:23 | 57.62927 | 18.65881 | 37371 ft | 480 kts | 118° |
| 2026-04-28 17:23 | 57.59217 | 18.76254 | 37376 ft | 481 kts | 118° |
| 2026-04-28 17:24 | 57.55491 | 18.86623 | 37382 ft | 481 kts | 118° |
| 2026-04-28 17:24 | 57.51763 | 18.96925 | 37423 ft | 482 kts | 118° |
| 2026-04-28 17:25 | 57.46133 | 19.12446 | 37380 ft | 482 kts | 118° |
| 2026-04-28 17:26 | 57.42377 | 19.22760 | 37388 ft | 483 kts | 119° |
| 2026-04-28 17:26 | 57.38633 | 19.33003 | 37383 ft | 483 kts | 119° |
| 2026-04-28 17:27 | 57.34838 | 19.43286 | 37393 ft | 483 kts | 119° |
| 2026-04-28 17:27 | 57.31034 | 19.53546 | 37376 ft | 483 kts | 120° |
| 2026-04-28 17:28 | 57.27228 | 19.63790 | 37374 ft | 483 kts | 120° |
| 2026-04-28 17:28 | 57.21514 | 19.79132 | 37377 ft | 484 kts | 120° |
| 2026-04-28 17:29 | 57.17681 | 19.89339 | 37373 ft | 484 kts | 120° |
| 2026-04-28 17:30 | 57.11114 | 20.03619 | 37384 ft | 487 kts | 128° |
| 2026-04-28 17:30 | 57.04357 | 20.17575 | 37379 ft | 487 kts | 128° |
| 2026-04-28 17:31 | 56.97590 | 20.31452 | 37367 ft | 486 kts | 128° |
| 2026-04-28 17:32 | 56.90804 | 20.45265 | 37351 ft | 484 kts | 128° |
| 2026-04-28 17:32 | 56.86293 | 20.54397 | 37351 ft | 484 kts | 129° |
| 2026-04-28 17:33 | 56.81803 | 20.63467 | 37347 ft | 484 kts | 128° |
| 2026-04-28 17:33 | 56.78014 | 20.71114 | 37348 ft | 485 kts | 129° |
| 2026-04-28 17:34 | 56.72736 | 20.81668 | 37333 ft | 485 kts | 129° |
| 2026-04-28 17:34 | 56.68188 | 20.90745 | 37353 ft | 485 kts | 129° |
| 2026-04-28 17:35 | 56.63633 | 20.99816 | 37347 ft | 485 kts | 129° |
| 2026-04-28 17:35 | 56.59072 | 21.08848 | 37346 ft | 485 kts | 129° |
| 2026-04-28 17:36 | 56.54498 | 21.17859 | 37345 ft | 486 kts | 129° |
| 2026-04-28 17:36 | 56.49919 | 21.26852 | 37371 ft | 486 kts | 130° |
| 2026-04-28 17:37 | 56.45343 | 21.35826 | 37344 ft | 485 kts | 130° |
| 2026-04-28 17:37 | 56.40764 | 21.44766 | 37338 ft | 484 kts | 130° |
| 2026-04-28 17:38 | 56.36176 | 21.53678 | 37326 ft | 484 kts | 130° |
| 2026-04-28 17:38 | 56.31707 | 21.62627 | 37302 ft | 481 kts | 124° |
| 2026-04-28 17:39 | 56.27621 | 21.72177 | 37317 ft | 481 kts | 125° |
| 2026-04-28 17:40 | 56.21473 | 21.86456 | 37293 ft | 482 kts | 125° |
| 2026-04-28 17:40 | 56.17351 | 21.95964 | 37296 ft | 482 kts | 125° |
| 2026-04-28 17:41 | 56.13226 | 22.05438 | 37280 ft | 482 kts | 125° |
| 2026-04-28 17:41 | 56.09096 | 22.14909 | 37290 ft | 482 kts | 125° |
| 2026-04-28 17:42 | 56.04957 | 22.24363 | 37282 ft | 482 kts | 126° |
| 2026-04-28 17:42 | 56.00814 | 22.33779 | 37265 ft | 482 kts | 126° |
| 2026-04-28 17:43 | 55.96665 | 22.43180 | 37265 ft | 481 kts | 126° |
| 2026-04-28 17:43 | 55.92537 | 22.52479 | 37259 ft | 481 kts | 126° |
| 2026-04-28 17:44 | 55.88369 | 22.61827 | 37255 ft | 481 kts | 126° |
| 2026-04-28 17:44 | 55.84199 | 22.71147 | 37243 ft | 481 kts | 126° |
| 2026-04-28 17:45 | 55.80028 | 22.80452 | 37244 ft | 481 kts | 126° |
| 2026-04-28 17:45 | 55.75851 | 22.89740 | 37241 ft | 481 kts | 126° |
| 2026-04-28 17:46 | 55.71660 | 22.99011 | 37246 ft | 482 kts | 126° |
| 2026-04-28 17:46 | 55.67456 | 23.08273 | 37260 ft | 482 kts | 127° |
| 2026-04-28 17:47 | 55.63255 | 23.17500 | 37128 ft | 480 kts | 127° |
| 2026-04-28 17:47 | 55.61158 | 23.22102 | 36561 ft | 479 kts | 127° |
| 2026-04-28 17:47 | 55.59063 | 23.26687 | 35963 ft | 480 kts | 127° |
| 2026-04-28 17:47 | 55.57671 | 23.29729 | 35568 ft | 480 kts | 127° |
| 2026-04-28 17:48 | 55.54854 | 23.35866 | 34763 ft | 481 kts | 127° |
| 2026-04-28 17:48 | 55.52765 | 23.40407 | 34154 ft | 482 kts | 127° |
| 2026-04-28 17:48 | 55.50648 | 23.44996 | 33462 ft | 482 kts | 127° |
| 2026-04-28 17:48 | 55.48528 | 23.49581 | 32803 ft | 481 kts | 127° |
| 2026-04-28 17:49 | 55.46419 | 23.54131 | 32126 ft | 479 kts | 127° |
| 2026-04-28 17:49 | 55.44307 | 23.58671 | 31440 ft | 479 kts | 127° |
| 2026-04-28 17:49 | 55.42195 | 23.63210 | 30853 ft | 476 kts | 127° |
| 2026-04-28 17:49 | 55.40116 | 23.67682 | 30368 ft | 470 kts | 127° |
| 2026-04-28 17:50 | 55.38056 | 23.72109 | 29777 ft | 465 kts | 127° |
| 2026-04-28 17:50 | 55.36014 | 23.76485 | 29161 ft | 459 kts | 127° |
| 2026-04-28 17:50 | 55.33996 | 23.80798 | 28585 ft | 454 kts | 127° |
| 2026-04-28 17:50 | 55.32003 | 23.85047 | 27994 ft | 449 kts | 127° |
| 2026-04-28 17:51 | 55.30028 | 23.89250 | 27455 ft | 443 kts | 127° |
| 2026-04-28 17:51 | 55.28106 | 23.93339 | 26918 ft | 437 kts | 128° |
| 2026-04-28 17:51 | 55.26180 | 23.97429 | 26351 ft | 433 kts | 127° |
| 2026-04-28 17:51 | 55.24266 | 24.01481 | 25800 ft | 429 kts | 127° |
| 2026-04-28 17:52 | 55.22375 | 24.05479 | 25272 ft | 424 kts | 127° |
| 2026-04-28 17:52 | 55.20503 | 24.09432 | 24753 ft | 420 kts | 127° |
| 2026-04-28 17:52 | 55.16807 | 24.17224 | 23780 ft | 411 kts | 128° |
| 2026-04-28 17:53 | 55.14989 | 24.21049 | 23201 ft | 407 kts | 128° |
| 2026-04-28 17:53 | 55.13183 | 24.24841 | 22637 ft | 404 kts | 128° |
| 2026-04-28 17:53 | 55.11391 | 24.28597 | 22109 ft | 400 kts | 128° |
| 2026-04-28 17:53 | 55.09613 | 24.32319 | 21605 ft | 396 kts | 128° |
| 2026-04-28 17:54 | 55.07851 | 24.36001 | 21084 ft | 393 kts | 128° |
| 2026-04-28 17:54 | 55.06107 | 24.39641 | 20524 ft | 389 kts | 127° |
| 2026-04-28 17:54 | 55.04394 | 24.43207 | 20013 ft | 387 kts | 128° |
| 2026-04-28 17:54 | 55.02672 | 24.46786 | 19482 ft | 384 kts | 127° |
| 2026-04-28 17:55 | 55.00958 | 24.50343 | 18966 ft | 381 kts | 128° |
| 2026-04-28 17:55 | 54.99259 | 24.53861 | 18440 ft | 378 kts | 128° |
| 2026-04-28 17:55 | 54.97570 | 24.57347 | 17888 ft | 375 kts | 128° |
| 2026-04-28 17:55 | 54.95895 | 24.60808 | 17289 ft | 373 kts | 128° |
| 2026-04-28 17:56 | 54.94233 | 24.64246 | 16714 ft | 370 kts | 128° |
| 2026-04-28 17:56 | 54.92618 | 24.67708 | 16140 ft | 367 kts | 123° |
| 2026-04-28 17:56 | 54.91292 | 24.71467 | 15588 ft | 363 kts | 117° |
| 2026-04-28 17:56 | 54.90016 | 24.75256 | 15038 ft | 362 kts | 118° |
| 2026-04-28 17:57 | 54.88746 | 24.79003 | 14573 ft | 358 kts | 118° |
| 2026-04-28 17:57 | 54.87504 | 24.82639 | 14441 ft | 344 kts | 118° |
| 2026-04-28 17:57 | 54.86306 | 24.86149 | 14308 ft | 333 kts | 118° |
| 2026-04-28 17:57 | 54.85040 | 24.89434 | 14169 ft | 324 kts | 130° |
| 2026-04-28 17:58 | 54.83347 | 24.91934 | 14048 ft | 316 kts | 148° |
| 2026-04-28 17:58 | 54.81352 | 24.93452 | 13598 ft | 313 kts | 167° |
| 2026-04-28 17:58 | 54.79261 | 24.93849 | 13346 ft | 295 kts | 181° |
| 2026-04-28 17:58 | 54.77234 | 24.93896 | 12828 ft | 289 kts | 180° |
| 2026-04-28 17:59 | 54.75228 | 24.93958 | 12271 ft | 287 kts | 180° |
| 2026-04-28 17:59 | 54.73246 | 24.94026 | 11737 ft | 284 kts | 180° |
| 2026-04-28 17:59 | 54.71276 | 24.94096 | 11190 ft | 282 kts | 181° |
| 2026-04-28 17:59 | 54.69322 | 24.94164 | 10675 ft | 280 kts | 181° |
| 2026-04-28 18:00 | 54.67385 | 24.94231 | 10150 ft | 277 kts | 181° |
| 2026-04-28 18:00 | 54.65465 | 24.94296 | 9617 ft | 275 kts | 181° |
| 2026-04-28 18:00 | 54.64201 | 24.94339 | 9252 ft | 273 kts | 181° |
| 2026-04-28 18:00 | 54.61673 | 24.94426 | 8521 ft | 271 kts | 181° |
| 2026-04-28 18:01 | 54.59807 | 24.94787 | 7987 ft | 270 kts | 166° |
| 2026-04-28 18:01 | 54.58108 | 24.96038 | 7481 ft | 269 kts | 147° |
| 2026-04-28 18:01 | 54.56675 | 24.98078 | 6943 ft | 267 kts | 133° |
| 2026-04-28 18:01 | 54.55356 | 25.00324 | 6398 ft | 266 kts | 134° |
| 2026-04-28 18:02 | 54.54039 | 25.02549 | 5861 ft | 265 kts | 134° |
| 2026-04-28 18:02 | 54.52726 | 25.04759 | 5328 ft | 263 kts | 134° |
| 2026-04-28 18:02 | 54.51844 | 25.06242 | 4963 ft | 262 kts | 134° |
| 2026-04-28 18:02 | 54.50559 | 25.08398 | 4431 ft | 261 kts | 134° |
| 2026-04-28 18:03 | 54.49266 | 25.10565 | 3908 ft | 258 kts | 134° |
| 2026-04-28 18:03 | 54.48166 | 25.12940 | 3418 ft | 249 kts | 107° |
| 2026-04-28 18:03 | 54.48084 | 25.15667 | 3271 ft | 216 kts | 64° |
| 2026-04-28 18:03 | 54.48856 | 25.17616 | 3168 ft | 184 kts | 39° |
| 2026-04-28 18:04 | 54.49794 | 25.18848 | 3072 ft | 158 kts | 24° |
| 2026-04-28 18:04 | 54.50722 | 25.19677 | 3005 ft | 145 kts | 19° |
| 2026-04-28 18:04 | 54.51632 | 25.20378 | 2921 ft | 142 kts | 18° |
| 2026-04-28 18:04 | 54.52535 | 25.21034 | 2771 ft | 140 kts | 16° |
| 2026-04-28 18:05 | 54.53438 | 25.21671 | 2596 ft | 140 kts | 16° |
| 2026-04-28 18:05 | 54.54036 | 25.22089 | 2473 ft | 140 kts | 15° |
| 2026-04-28 18:05 | 54.55235 | 25.22921 | 2223 ft | 138 kts | 15° |
| 2026-04-28 18:05 | 54.56125 | 25.23536 | 2029 ft | 138 kts | 16° |
| 2026-04-28 18:06 | 54.57013 | 25.24150 | 1844 ft | 137 kts | 15° |
| 2026-04-28 18:06 | 54.57889 | 25.24755 | 1648 ft | 134 kts | 15° |
| 2026-04-28 18:06 | 54.58749 | 25.25350 | 1459 ft | 132 kts | 16° |
| 2026-04-28 18:06 | 54.59590 | 25.25931 | 1249 ft | 132 kts | 17° |
| 2026-04-28 18:07 | 54.60435 | 25.26515 | 1065 ft | 129 kts | 16° |
| 2026-04-28 18:07 | 54.61278 | 25.27098 | 882 ft | 133 kts | 18° |
| 2026-04-28 18:07 | 54.62142 | 25.27695 | 698 ft | 134 kts | 18° |
| 2026-04-28 18:07 | 54.62989 | 25.28281 | 602 ft | 117 kts | 22° |
| 2026-04-28 18:08 | 54.63582 | 25.28695 | 621 ft | 68 kts | 22° |
| 2026-04-28 18:08 | 54.63990 | 25.28970 | 643 ft | 60 kts | 21° |
| 2026-04-28 18:08 | 54.64317 | 25.29201 | 655 ft | 38 kts | 21° |
| 2026-04-28 18:08 | 54.64458 | 25.29242 | 657 ft | 14 kts | 314° |
| 2026-04-28 18:09 | 54.64492 | 25.29146 | 658 ft | 1 kts | 298° |
| 2026-04-28 18:09 | 54.64502 | 25.29116 | 661 ft | 5 kts | 298° |
| 2026-04-28 18:09 | 54.64509 | 25.29092 | 656 ft | 1 kts | 298° |
| 2026-04-28 18:09 | 54.64514 | 25.29075 | 657 ft | 2 kts | 298° |
| 2026-04-28 18:10 | 54.64527 | 25.29037 | 657 ft | 5 kts | 298° |
| 2026-04-28 18:10 | 54.64546 | 25.28967 | 657 ft | 8 kts | 294° |
| 2026-04-28 18:10 | 54.64559 | 25.28856 | 657 ft | 11 kts | 264° |
| 2026-04-28 18:10 | 54.64540 | 25.28700 | 657 ft | 11 kts | 260° |
| 2026-04-28 18:11 | 54.64510 | 25.28616 | 652 ft | 9 kts | 188° |
| 2026-04-28 18:11 | 54.64437 | 25.28637 | 651 ft | 8 kts | 169° |
| 2026-04-28 18:11 | 54.64409 | 25.28585 | 648 ft | 6 kts | 262° |
| 2026-04-28 18:11 | 54.64386 | 25.28551 | 646 ft | 8 kts | 184° |
| 2026-04-28 18:12 | 54.64363 | 25.28551 | 648 ft | 0 kts | 178° |